createdAt,value
2023-09-08T00:01:19.309Z,15.79
2023-09-08T00:05:18.288Z,15.74
2023-09-08T00:09:18.276Z,15.73
2023-09-08T00:13:16.354Z,15.71
2023-09-08T00:17:14.285Z,15.65
2023-09-08T00:21:12.278Z,15.62
2023-09-08T00:25:10.274Z,15.61
2023-09-08T00:29:08.321Z,15.58
2023-09-08T00:33:06.320Z,15.55
2023-09-08T00:37:04.232Z,15.54
2023-09-08T00:41:02.329Z,15.53
2023-09-08T00:45:00.310Z,15.51
2023-09-08T00:48:58.224Z,15.51
2023-09-08T00:52:56.310Z,15.51
2023-09-08T00:56:54.221Z,15.52
2023-09-08T01:00:52.267Z,15.53
2023-09-08T01:04:50.334Z,15.54
2023-09-08T01:08:48.277Z,15.56
2023-09-08T01:12:46.215Z,15.58
2023-09-08T01:16:45.292Z,15.56
2023-09-08T01:21:05.225Z,15.56
2023-09-08T01:25:21.226Z,15.58
2023-09-08T01:29:21.236Z,15.60
2023-09-08T01:33:19.215Z,15.60
2023-09-08T01:37:17.213Z,15.55
2023-09-08T01:41:15.239Z,15.50
2023-09-08T01:45:13.242Z,15.46
2023-09-08T01:49:11.286Z,15.43
2023-09-08T01:53:09.175Z,15.39
2023-09-08T01:57:07.276Z,15.30
2023-09-08T02:01:13.195Z,15.24
2023-09-08T02:05:11.312Z,15.20
2023-09-08T02:09:09.192Z,15.15
2023-09-08T02:13:08.173Z,15.11
2023-09-08T02:17:06.167Z,15.07
2023-09-08T02:21:04.289Z,15.03
2023-09-08T02:25:02.120Z,15.01
2023-09-08T02:29:00.174Z,14.98
2023-09-08T02:32:58.209Z,14.95
2023-09-08T02:36:58.157Z,14.94
2023-09-08T02:40:56.145Z,14.91
2023-09-08T02:44:54.125Z,14.86
2023-09-08T02:49:24.215Z,14.81
2023-09-08T02:53:22.194Z,14.68
2023-09-08T02:57:20.116Z,14.57
2023-09-08T03:01:30.223Z,14.49
2023-09-08T03:05:30.530Z,14.37
2023-09-08T03:09:28.094Z,14.33
2023-09-08T03:13:26.088Z,14.26
2023-09-08T03:17:24.196Z,14.20
2023-09-08T03:21:22.099Z,14.15
2023-09-08T03:25:20.087Z,14.09
2023-09-08T03:29:18.068Z,14.05
2023-09-08T03:33:16.310Z,14.00
2023-09-08T03:37:14.102Z,13.97
2023-09-08T03:41:14.119Z,13.94
2023-09-08T03:45:12.049Z,13.94
2023-09-08T03:49:10.062Z,13.92
2023-09-08T03:53:08.090Z,13.90
2023-09-08T03:57:06.077Z,13.88
2023-09-08T04:01:04.082Z,13.88
2023-09-08T04:05:02.123Z,13.88
2023-09-08T04:09:00.117Z,13.88
2023-09-08T04:12:58.054Z,13.89
2023-09-08T04:16:56.012Z,13.92
2023-09-08T04:20:54.137Z,14.00
2023-09-08T04:24:51.979Z,14.14
2023-09-08T04:28:50.059Z,14.37
2023-09-08T04:32:48.033Z,14.61
2023-09-08T04:36:46.044Z,14.77
2023-09-08T04:40:44.077Z,14.94
2023-09-08T04:44:42.015Z,15.09
2023-09-08T04:48:41.032Z,15.26
2023-09-08T04:52:39.044Z,15.48
2023-09-08T04:56:37.085Z,15.70
2023-09-08T05:00:34.979Z,15.90
2023-09-08T05:04:34.009Z,16.02
2023-09-08T05:08:32.076Z,16.14
2023-09-08T05:12:29.959Z,16.31
2023-09-08T05:16:34.001Z,16.52
2023-09-08T05:20:33.962Z,16.70
2023-09-08T05:24:32.990Z,16.88
2023-09-08T05:28:31.122Z,16.99
2023-09-08T05:32:29.092Z,17.16
2023-09-08T05:36:26.933Z,17.36
2023-09-08T05:40:25.038Z,17.49
2023-09-08T05:44:23.036Z,17.65
2023-09-08T05:48:20.966Z,17.86
2023-09-08T05:52:19.076Z,17.94
2023-09-08T05:56:16.997Z,18.02
2023-09-08T05:59:54.689Z,18.08
2023-09-08T06:03:19.128Z,18.18
2023-09-08T06:06:43.535Z,18.26
2023-09-08T06:10:07.910Z,18.34
2023-09-08T06:13:31.966Z,18.46
2023-09-08T06:16:56.097Z,18.62
2023-09-08T06:20:20.313Z,18.80
2023-09-08T06:23:44.647Z,18.90
2023-09-08T06:27:10.533Z,19.03
2023-09-08T06:30:34.469Z,19.15
2023-09-08T06:33:59.490Z,19.24
2023-09-08T06:37:24.066Z,19.37
2023-09-08T06:40:50.722Z,19.52
2023-09-08T06:44:14.745Z,19.64
2023-09-08T06:47:38.967Z,19.74
2023-09-08T06:51:03.212Z,19.90
2023-09-08T06:54:27.320Z,20.12
2023-09-08T06:57:51.296Z,20.31
2023-09-08T07:01:15.435Z,20.48
2023-09-08T07:04:39.715Z,20.65
2023-09-08T07:08:04.301Z,20.79
2023-09-08T07:11:28.613Z,20.85
2023-09-08T07:14:52.573Z,20.96
2023-09-08T07:18:16.634Z,21.14
2023-09-08T07:21:41.036Z,21.34
2023-09-08T07:25:05.361Z,21.52
2023-09-08T07:28:29.978Z,21.59
2023-09-08T07:31:55.708Z,21.65
2023-09-08T07:35:21.399Z,21.78
2023-09-08T07:38:45.525Z,21.91
2023-09-08T07:42:10.075Z,22.09
2023-09-08T07:45:34.278Z,22.29
2023-09-08T07:49:00.868Z,22.26
2023-09-08T07:52:24.903Z,22.20
2023-09-08T07:55:48.775Z,22.24
2023-09-08T07:59:12.774Z,22.34
2023-09-08T08:02:36.617Z,22.57
2023-09-08T08:06:00.580Z,22.85
2023-09-08T08:09:24.499Z,23.11
2023-09-08T08:12:48.715Z,23.22
2023-09-08T08:16:13.438Z,23.21
2023-09-08T08:19:37.374Z,23.27
2023-09-08T08:23:01.470Z,23.37
2023-09-08T08:26:28.768Z,23.47
2023-09-08T08:29:53.094Z,23.49
2023-09-08T08:33:17.018Z,23.56
2023-09-08T08:36:40.952Z,23.78
2023-09-08T08:40:05.308Z,23.87
2023-09-08T08:43:30.445Z,23.80
2023-09-08T08:46:56.607Z,23.77
2023-09-08T08:50:21.679Z,23.70
2023-09-08T08:53:45.629Z,23.72
2023-09-08T08:57:09.953Z,23.79
2023-09-08T09:00:38.171Z,23.89
2023-09-08T09:04:02.377Z,23.94
2023-09-08T09:07:26.855Z,23.98
2023-09-08T09:10:50.715Z,24.15
2023-09-08T09:14:14.648Z,24.32
2023-09-08T09:17:38.701Z,24.42
2023-09-08T09:21:04.019Z,24.43
2023-09-08T09:24:39.736Z,24.45
2023-09-08T09:28:05.091Z,24.62
2023-09-08T09:31:28.967Z,24.66
2023-09-08T09:34:55.014Z,24.79
2023-09-08T09:38:19.697Z,24.99
2023-09-08T09:41:43.875Z,25.12
2023-09-08T09:45:08.949Z,25.08
2023-09-08T09:48:33.097Z,25.19
2023-09-08T09:51:57.154Z,25.14
2023-09-08T09:55:21.942Z,25.01
2023-09-08T09:58:46.244Z,24.89
2023-09-08T10:02:15.546Z,24.76
2023-09-08T10:05:39.636Z,24.76
2023-09-08T10:09:06.862Z,24.85
2023-09-08T10:12:33.295Z,24.87
2023-09-08T10:16:01.074Z,24.98
2023-09-08T10:19:25.624Z,25.02
2023-09-08T10:23:12.270Z,25.18
2023-09-08T10:26:37.937Z,25.51
2023-09-08T10:30:08.868Z,25.87
2023-09-08T10:33:33.849Z,26.22
2023-09-08T10:36:58.231Z,26.37
2023-09-08T10:40:28.529Z,26.56
2023-09-08T10:44:01.522Z,26.84
2023-09-08T10:47:28.126Z,26.88
2023-09-08T10:50:51.971Z,26.78
2023-09-08T10:54:45.370Z,26.37
2023-09-08T10:58:11.743Z,26.44
2023-09-08T11:01:37.604Z,26.21
2023-09-08T11:05:01.546Z,25.89
2023-09-08T11:08:27.264Z,25.60
2023-09-08T11:11:52.768Z,25.29
2023-09-08T11:15:16.622Z,25.05
2023-09-08T11:18:42.015Z,24.98
2023-09-08T11:22:06.059Z,25.02
2023-09-08T11:25:30.731Z,25.16
2023-09-08T11:28:54.827Z,25.60
2023-09-08T11:32:18.796Z,26.04
2023-09-08T11:35:44.629Z,26.57
2023-09-08T11:39:09.280Z,27.13
2023-09-08T11:42:33.183Z,27.45
2023-09-08T11:45:58.059Z,27.94
2023-09-08T11:49:24.031Z,28.26
2023-09-08T11:52:52.654Z,28.58
2023-09-08T11:56:16.919Z,28.77
2023-09-08T11:59:41.385Z,28.61
2023-09-08T12:03:12.253Z,28.49
2023-09-08T12:06:36.286Z,28.63
2023-09-08T12:10:00.532Z,28.17
2023-09-08T12:13:25.583Z,27.62
2023-09-08T12:16:49.486Z,27.43
2023-09-08T12:20:17.589Z,27.24
2023-09-08T12:23:52.377Z,26.87
2023-09-08T12:27:16.733Z,26.81
2023-09-08T12:30:41.076Z,27.12
2023-09-08T12:34:04.965Z,27.25
2023-09-08T12:37:30.233Z,26.99
2023-09-08T12:40:54.144Z,27.07
2023-09-08T12:44:18.165Z,27.03
2023-09-08T12:47:44.326Z,26.94
2023-09-08T12:51:08.249Z,26.91
2023-09-08T12:54:32.220Z,27.07
2023-09-08T12:57:56.671Z,26.93
2023-09-08T13:01:20.573Z,26.41
2023-09-08T13:04:49.521Z,26.39
2023-09-08T13:08:16.395Z,26.76
2023-09-08T13:11:40.323Z,26.95
2023-09-08T13:15:04.442Z,27.11
2023-09-08T13:18:28.509Z,27.64
2023-09-08T13:21:52.546Z,28.31
2023-09-08T13:25:16.426Z,28.77
2023-09-08T13:28:40.325Z,29.25
2023-09-08T13:32:24.614Z,29.48
2023-09-08T13:36:22.613Z,29.25
2023-09-08T13:40:20.630Z,28.60
2023-09-08T13:44:18.624Z,28.26
2023-09-08T13:48:17.124Z,28.04
2023-09-08T13:52:18.878Z,27.68
2023-09-08T13:56:20.537Z,27.36
2023-09-08T14:00:23.741Z,27.37
2023-09-08T14:08:28.436Z,27.47
2023-09-08T14:12:33.987Z,27.49
2023-09-08T14:16:34.598Z,27.55
2023-09-08T14:20:32.835Z,27.48
2023-09-08T14:24:30.673Z,27.33
2023-09-08T14:28:28.485Z,27.41
2023-09-08T14:32:26.537Z,27.49
2023-09-08T14:36:24.483Z,27.78
2023-09-08T14:40:22.527Z,27.90
2023-09-08T14:44:23.536Z,27.78
2023-09-08T14:48:21.718Z,27.56
2023-09-08T14:52:19.550Z,27.51
2023-09-08T14:56:17.480Z,27.39
2023-09-08T15:00:15.671Z,27.62
2023-09-08T15:04:13.633Z,27.65
2023-09-08T15:08:11.511Z,27.59
2023-09-08T15:12:09.498Z,27.57
2023-09-08T15:16:07.534Z,27.86
2023-09-08T15:20:06.561Z,27.76
2023-09-08T15:24:04.499Z,27.76
2023-09-08T15:28:02.487Z,27.71
2023-09-08T15:32:00.500Z,27.44
2023-09-08T15:35:58.539Z,26.89
2023-09-08T15:39:56.453Z,26.70
2023-09-08T15:43:55.513Z,26.44
2023-09-08T15:47:53.498Z,26.08
2023-09-08T15:52:04.367Z,25.72
2023-09-08T15:56:11.511Z,25.50
2023-09-08T16:00:09.514Z,25.33
2023-09-08T16:04:08.936Z,25.31
2023-09-08T16:08:06.419Z,25.17
2023-09-08T16:12:04.425Z,25.07
2023-09-08T16:16:02.491Z,24.94
2023-09-08T16:20:00.445Z,24.87
2023-09-08T16:23:58.497Z,24.72
2023-09-08T16:27:56.429Z,24.52
2023-09-08T16:31:54.604Z,24.36
2023-09-08T16:35:52.433Z,24.28
2023-09-08T16:39:50.441Z,24.21
2023-09-08T16:43:48.442Z,24.06
2023-09-08T16:47:46.558Z,23.93
2023-09-08T16:51:44.478Z,23.81
2023-09-08T16:55:42.440Z,23.67
2023-09-08T16:59:40.439Z,23.52
2023-09-08T17:03:38.838Z,23.37
2023-09-08T17:07:37.408Z,23.16
2023-09-08T17:11:35.679Z,22.91
2023-09-08T17:15:33.363Z,22.64
2023-09-08T17:19:31.384Z,22.43
2023-09-08T17:23:34.195Z,22.23
2023-09-08T17:27:32.550Z,22.06
2023-09-08T17:31:30.371Z,21.90
2023-09-08T17:35:28.402Z,21.71
2023-09-08T17:39:26.380Z,21.52
2023-09-08T17:43:24.370Z,21.29
2023-09-08T17:47:22.329Z,21.08
2023-09-08T17:51:20.525Z,20.87
2023-09-08T17:55:18.324Z,20.65
2023-09-08T17:59:16.381Z,20.47
2023-09-08T18:03:16.261Z,20.32
2023-09-08T18:07:15.528Z,20.18
2023-09-08T18:11:17.328Z,20.03
2023-09-08T18:15:15.370Z,19.88
2023-09-08T18:19:13.633Z,19.77
2023-09-08T18:23:11.330Z,19.67
2023-09-08T18:27:09.316Z,19.54
2023-09-08T18:31:07.371Z,19.39
2023-09-08T18:35:05.378Z,19.23
2023-09-08T18:39:03.318Z,18.90
2023-09-08T18:43:01.248Z,18.77
2023-09-08T18:46:59.392Z,18.68
2023-09-08T18:50:57.305Z,18.58
2023-09-08T18:54:55.382Z,18.52
2023-09-08T18:58:53.259Z,18.48
2023-09-08T19:02:51.519Z,18.45
2023-09-08T19:06:50.267Z,18.41
2023-09-08T19:10:48.311Z,18.38
2023-09-08T19:14:46.301Z,18.30
2023-09-08T19:18:44.321Z,18.19
2023-09-08T19:22:42.268Z,18.04
2023-09-08T19:26:40.277Z,17.90
2023-09-08T19:30:38.253Z,17.77
2023-09-08T19:34:36.281Z,17.69
2023-09-08T19:38:34.251Z,17.61
2023-09-08T19:42:32.293Z,17.56
2023-09-08T19:46:30.268Z,17.50
2023-09-08T19:50:28.324Z,17.40
2023-09-08T19:54:26.221Z,17.31
2023-09-08T19:58:24.356Z,17.22
2023-09-08T20:02:23.228Z,17.14
2023-09-08T20:06:21.260Z,17.04
2023-09-08T20:10:19.255Z,16.95
2023-09-08T20:14:17.229Z,16.88
2023-09-08T20:18:15.286Z,16.80
2023-09-08T20:22:13.212Z,16.73
2023-09-08T20:26:11.210Z,16.69
2023-09-08T20:30:09.236Z,16.67
2023-09-08T20:34:07.199Z,16.63
2023-09-08T20:38:05.317Z,16.60
2023-09-08T20:42:03.211Z,16.54
2023-09-08T20:46:09.299Z,16.47
2023-09-08T20:50:07.208Z,16.36
2023-09-08T20:54:05.210Z,16.28
2023-09-08T20:58:03.157Z,16.23
2023-09-08T21:02:04.148Z,16.19
2023-09-08T21:06:02.188Z,16.15
2023-09-08T21:10:00.285Z,16.11
2023-09-08T21:13:58.110Z,16.05
2023-09-08T21:17:56.198Z,16.00
2023-09-08T21:21:54.214Z,15.94
2023-09-08T21:25:52.199Z,15.92
2023-09-08T21:29:50.165Z,15.87
2023-09-08T21:33:51.012Z,15.83
2023-09-08T21:37:49.106Z,15.77
2023-09-08T21:41:47.142Z,15.70
2023-09-08T21:45:45.138Z,15.64
2023-09-08T21:49:43.216Z,15.59
2023-09-08T21:53:41.137Z,15.53
2023-09-08T21:57:40.099Z,15.46
2023-09-08T22:01:38.125Z,15.40
2023-09-08T22:05:36.151Z,15.40
2023-09-08T22:09:41.063Z,15.37
2023-09-08T22:13:39.130Z,15.29
2023-09-08T22:17:37.111Z,15.26
2023-09-08T22:21:35.105Z,15.22
2023-09-08T22:25:33.065Z,15.17
2023-09-08T22:29:31.100Z,15.15
2023-09-08T22:33:29.179Z,15.14
2023-09-08T22:37:27.095Z,15.10
2023-09-08T22:41:25.019Z,15.03
2023-09-08T22:45:23.098Z,14.99
2023-09-08T22:49:42.073Z,14.94
2023-09-08T22:53:40.247Z,14.89
2023-09-08T22:57:38.065Z,14.86
2023-09-08T23:01:36.140Z,14.84
2023-09-08T23:05:34.031Z,14.81
2023-09-08T23:09:32.079Z,14.76
2023-09-08T23:13:30.044Z,14.69
2023-09-08T23:17:28.141Z,14.60
2023-09-08T23:21:26.064Z,14.58
2023-09-08T23:25:24.050Z,14.56
2023-09-08T23:29:22.061Z,14.54
2023-09-08T23:33:20.100Z,14.52
2023-09-08T23:37:18.019Z,14.49
2023-09-08T23:41:16.066Z,14.46
2023-09-08T23:45:13.982Z,14.42
2023-09-08T23:49:12.008Z,14.40
2023-09-08T23:53:09.991Z,14.35
2023-09-08T23:57:12.102Z,14.31
